• Join FlightAware (Why Join?)
  • Login
  • US Flag 
10:04AM EDT


 

Airport Tracker/Info


-or-


 

Live Flight TrackerFlight Track Log ✈ SWA22 ✈ 15-Apr-2013 ✈ KDAL - KSAT

Flight Track Log - Related Links

Times and Time Zones

All times are in EDT time to prevent confusion due to time zone crossing. See the SWA22 flight status page for this flight to view local times or setup timezone preferences in your user account.

Time Position Orientation Groundspeed Altitude Reporting Facility
EDT Latitude Longitude Course Direction KTS MPH feet Rate Location/Type
02:17PM 32.7833 -96.7833 138° Southeast 217 250 4,200  Level Dallas / Fort Worth TRACON
02:18PM 32.7333 -96.7833 180° South 245 282 7,000 2,340 Climbing Dallas / Fort Worth TRACON
02:20PM 32.5839 -96.8733 207° Southwest 291 335 11,400 2,340 Climbing Fort Worth Center
02:21PM 32.5089 -96.9183 207° Southwest 323 372 14,100 2,760 Climbing Fort Worth Center
02:22PM 32.4150 -96.9728 206° Southwest 335 386 17,000 2,700 Climbing Fort Worth Center
02:23PM 32.3358 -97.0175 206° Southwest 343 395 19,600 2,640 Climbing Fort Worth Center
02:24PM 32.2358 -97.0694 204° Southwest 354 407 22,300 2,100 Climbing Fort Worth Center
02:26PM 32.0439 -97.1461 199° South 381 438 25,900 1,620 Climbing Fort Worth Center
02:27PM 31.9375 -97.1758 193° South 396 456 27,300 1,200 Climbing Fort Worth Center
02:30PM 31.6697 -97.2369 191° South 419 482 30,000 780 Climbing Houston Center
02:31PM 31.5564 -97.2639 191° South 414 476 30,000 -660 Level Houston Center
02:32PM 31.4503 -97.2889 191° South 389 448 28,700 -1,080 Descending Houston Center
02:33PM 31.3453 -97.3125 191° South 382 440 27,800 -1,020 Descending Houston Center
02:34PM 31.2189 -97.3414 191° South 392 451 26,700 -1,020 Descending Houston Center
02:35PM 31.1086 -97.3664 191° South 400 460 25,700 -960 Descending Houston Center
02:36PM 31.0003 -97.3908 191° South 400 460 24,800 -1,020 Descending Houston Center
02:37PM 30.8933 -97.4147 191° South 397 457 23,700 -1,140 Descending Houston Center
02:38PM 30.7719 -97.4419 191° South 382 440 22,500 -1,080 Descending Houston Center
02:39PM 30.6728 -97.4642 191° South 365 420 21,500 -1,020 Descending Houston Center
02:40PM 30.5761 -97.4850 191° South 353 406 20,400 -1,020 Descending Houston Center
02:41PM 30.4808 -97.5058 191° South 345 397 19,400 -960 Descending Houston Center
02:42PM 30.3856 -97.5289 192° South 347 399 18,500 -1,020 Descending Houston Center
02:43PM 30.3011 -97.5839 209° Southwest 346 398 17,400 -1,140 Descending Houston Center
02:44PM 30.2067 -97.6494 211° Southwest 337 388 16,200 -1,080 Descending Houston Center
02:45PM 30.1275 -97.7036 211° Southwest 328 377 15,200 -1,080 Descending Houston Center
02:46PM 30.0917 -97.7283 211° Southwest 322 371 14,700 -1,200 Descending Houston Center
02:46PM 30.0486 -97.7578 211° Southwest 305 351 14,000 -1,020 Descending Houston Center
02:47PM 29.9800 -97.8056 211° Southwest 291 335 13,100 -540 Descending Houston Center
02:48PM 29.9086 -97.8544 211° Southwest 297 342 13,000 -960 Descending Houston Center
02:49PM 29.8656 -97.9367 239° Southwest 279 321 11,200 -1,860 Descending Houston Center
02:50PM 29.8308 -98.0208 245° Southwest 291 335 9,200 -1,800 Descending Houston Center
02:51PM 29.7931 -98.1094 244° Southwest 287 330 7,500 -1,500 Descending Houston Center
02:52PM 29.7594 -98.1875 244° Southwest 267 307 6,200 -840 Descending Houston Center
02:53PM 29.7339 -98.2508 245° Southwest 238 274 6,000 -120 Descending Houston Center
02:54PM 29.7044 -98.3169 243° Southwest 230 265 6,000 -120 Level Houston Center
02:55PM 29.7008 -98.3919 267° West 239 275 5,800 -840 Descending Houston Center
02:57PM 29.6964 -98.4792 267° West 233 268 4,300 -1,260 Descending Houston Center
02:58PM 29.6736 -98.5522 250° West 230 265 3,000 -600 Descending Houston Center
02:59PM 29.6336 -98.5731 204° Southwest 184 212 3,100 -360 Climbing Houston Center
02:59PM 29.5936 -98.5514 155° Southeast 163 188 2,400 -840 Descending Houston Center
03:00PM 29.5850 -98.5400 131° Southeast 166 191 2,100 -900 Descending Houston Center
03:00PM 29.5700 -98.5231 136° Southeast 146 168 1,700 -720 Descending Houston Center
03:01PM 29.5594 -98.5067 127° Southeast 142 163 1,400 -480 Descending Houston Center
03:02PM 29.5392 -98.4781 129° Southeast 135 155 1,000 -420 Descending Houston Center